createdAt,value
2022-08-19T00:01:52.874Z,17.23
2022-08-19T00:04:28.533Z,18.05
2022-08-19T00:06:56.264Z,19.10
2022-08-19T00:09:25.238Z,16.65
2022-08-19T00:11:53.473Z,15.98
2022-08-19T00:14:21.817Z,20.63
2022-08-19T00:16:49.999Z,15.48
2022-08-19T00:19:18.160Z,13.00
2022-08-19T00:21:45.344Z,15.25
2022-08-19T00:24:16.296Z,17.92
2022-08-19T00:26:46.134Z,18.55
2022-08-19T00:29:15.837Z,16.17
2022-08-19T00:31:44.164Z,14.68
2022-08-19T00:34:13.221Z,14.68
2022-08-19T00:36:42.044Z,19.15
2022-08-19T00:39:09.844Z,14.85
2022-08-19T00:41:37.101Z,14.05
2022-08-19T00:44:10.570Z,17.77
2022-08-19T00:46:39.831Z,12.98
2022-08-19T00:49:23.562Z,13.90
2022-08-19T00:52:00.113Z,17.73
2022-08-19T00:54:31.303Z,15.27
2022-08-19T00:57:00.622Z,18.25
2022-08-19T00:59:56.191Z,20.08
2022-08-19T01:02:17.863Z,18.02
2022-08-19T01:04:45.018Z,18.17
2022-08-19T01:07:15.097Z,19.58
2022-08-19T01:09:44.934Z,17.63
2022-08-19T01:12:12.395Z,15.90
2022-08-19T01:14:40.984Z,15.70
2022-08-19T01:17:12.890Z,14.85
2022-08-19T01:19:44.131Z,18.52
2022-08-19T01:22:31.542Z,15.95
2022-08-19T01:25:01.060Z,19.63
2022-08-19T01:27:43.079Z,14.38
2022-08-19T01:30:15.364Z,15.32
2022-08-19T01:32:44.202Z,18.08
2022-08-19T01:35:13.281Z,18.20
2022-08-19T01:37:56.608Z,22.00
2022-08-19T01:40:27.587Z,18.27
2022-08-19T01:42:55.211Z,19.85
2022-08-19T01:45:25.686Z,17.67
2022-08-19T01:48:01.888Z,20.95
2022-08-19T01:50:31.884Z,18.80
2022-08-19T01:53:06.286Z,21.10
2022-08-19T01:55:40.999Z,17.73
2022-08-19T01:58:20.335Z,18.75
2022-08-19T02:00:48.727Z,27.02
2022-08-19T02:03:16.994Z,18.52
2022-08-19T02:05:44.942Z,23.15
2022-08-19T02:08:13.052Z,20.08
2022-08-19T02:10:43.347Z,21.77
2022-08-19T02:13:12.038Z,18.00
2022-08-19T02:15:39.361Z,22.67
2022-08-19T02:18:07.416Z,21.80
2022-08-19T02:20:34.905Z,20.92
2022-08-19T02:23:02.306Z,21.23
2022-08-19T02:25:29.600Z,20.33
2022-08-19T02:27:56.682Z,20.77
2022-08-19T02:30:25.649Z,22.40
2022-08-19T02:32:53.726Z,22.35
2022-08-19T02:35:21.008Z,22.25
2022-08-19T02:38:06.788Z,17.20
2022-08-19T02:40:35.363Z,19.52
2022-08-19T02:43:08.427Z,17.13
2022-08-19T02:45:40.427Z,23.60
2022-08-19T02:48:17.925Z,19.48
2022-08-19T02:50:56.352Z,18.77
2022-08-19T02:53:27.191Z,21.08
2022-08-19T02:55:54.979Z,18.52
2022-08-19T02:58:23.433Z,17.55
2022-08-19T03:00:56.984Z,21.02
2022-08-19T03:03:24.613Z,19.48
2022-08-19T03:05:56.836Z,16.48
2022-08-19T03:08:25.458Z,22.33
2022-08-19T03:10:54.060Z,21.00
2022-08-19T03:13:21.433Z,15.48
2022-08-19T03:15:49.187Z,23.67
2022-08-19T03:18:17.973Z,21.42
2022-08-19T03:20:48.486Z,18.70
2022-08-19T03:23:16.390Z,17.17
2022-08-19T03:25:46.809Z,20.67
2022-08-19T03:28:25.333Z,16.90
2022-08-19T03:30:59.512Z,18.02
2022-08-19T03:33:30.858Z,20.52
2022-08-19T03:36:08.468Z,22.88
2022-08-19T03:38:41.301Z,19.95
2022-08-19T03:41:12.062Z,19.05
2022-08-19T03:43:40.625Z,18.88
2022-08-19T03:46:13.053Z,20.45
2022-08-19T03:48:42.402Z,23.67
2022-08-19T03:51:18.314Z,21.92
2022-08-19T03:54:01.393Z,18.77
2022-08-19T03:56:29.302Z,19.92
2022-08-19T03:58:57.886Z,25.27
2022-08-19T04:01:35.113Z,22.08
2022-08-19T04:04:04.825Z,25.35
2022-08-19T04:06:35.520Z,19.95
2022-08-19T04:09:10.408Z,23.55
2022-08-19T04:11:44.955Z,23.77
2022-08-19T04:14:19.428Z,20.95
2022-08-19T04:16:48.986Z,20.55
2022-08-19T04:19:18.111Z,19.90
2022-08-19T04:21:48.932Z,21.92
2022-08-19T04:24:16.575Z,19.65
2022-08-19T04:26:44.258Z,18.88
2022-08-19T04:29:23.032Z,20.77
2022-08-19T04:31:50.717Z,18.20
2022-08-19T04:34:23.244Z,18.85
2022-08-19T04:36:52.172Z,22.10
2022-08-19T04:39:24.111Z,17.88
2022-08-19T04:42:10.252Z,21.40
2022-08-19T04:44:39.906Z,28.65
2022-08-19T04:47:13.584Z,17.85
2022-08-19T04:49:41.099Z,20.98
2022-08-19T04:52:09.456Z,18.02
2022-08-19T04:54:38.336Z,19.55
2022-08-19T04:57:11.312Z,19.67
2022-08-19T04:59:40.441Z,17.05
2022-08-19T05:02:09.663Z,20.13
2022-08-19T05:04:40.104Z,19.00
2022-08-19T05:07:08.951Z,20.45
2022-08-19T05:09:57.638Z,19.83
2022-08-19T05:12:28.788Z,17.70
2022-08-19T05:14:58.343Z,20.80
2022-08-19T05:17:29.670Z,21.33
2022-08-19T05:20:18.114Z,17.63
2022-08-19T05:22:47.168Z,15.05
2022-08-19T05:25:20.054Z,20.38
2022-08-19T05:27:48.171Z,17.88
2022-08-19T05:30:15.958Z,15.45
2022-08-19T05:32:43.932Z,14.00
2022-08-19T05:35:12.276Z,14.23
2022-08-19T05:37:41.484Z,18.25
2022-08-19T05:40:10.643Z,15.73
2022-08-19T05:42:38.859Z,13.98
2022-08-19T05:45:08.717Z,16.92
2022-08-19T05:47:36.628Z,23.02
2022-08-19T05:50:09.831Z,14.13
2022-08-19T05:52:39.128Z,17.90
2022-08-19T05:55:11.516Z,14.25
2022-08-19T05:57:38.810Z,14.38
2022-08-19T06:00:11.963Z,15.55
2022-08-19T06:02:39.770Z,10.65
2022-08-19T06:05:08.240Z,13.40
2022-08-19T06:07:36.627Z,14.25
2022-08-19T06:10:06.926Z,13.82
2022-08-19T06:12:35.966Z,16.20
2022-08-19T06:15:08.081Z,15.70
2022-08-19T06:17:36.234Z,15.00
2022-08-19T06:20:09.719Z,15.05
2022-08-19T06:22:45.853Z,14.25
2022-08-19T06:25:15.139Z,15.73
2022-08-19T06:28:11.521Z,15.43
2022-08-19T06:30:30.610Z,16.48
2022-08-19T06:32:57.999Z,11.40
2022-08-19T06:35:26.401Z,14.93
2022-08-19T06:37:53.623Z,14.27
2022-08-19T06:40:21.171Z,14.98
2022-08-19T06:42:50.977Z,15.27
2022-08-19T06:45:24.831Z,17.05
2022-08-19T06:47:55.328Z,12.93
2022-08-19T06:50:26.019Z,12.68
2022-08-19T06:52:53.658Z,15.15
2022-08-19T06:55:21.094Z,11.18
2022-08-19T06:57:49.177Z,9.70
2022-08-19T07:00:16.991Z,11.25
2022-08-19T07:02:49.630Z,9.00
2022-08-19T07:05:20.684Z,11.77
2022-08-19T07:07:47.870Z,12.82
2022-08-19T07:10:15.192Z,10.43
2022-08-19T07:12:42.681Z,12.00
2022-08-19T07:15:11.894Z,13.60
2022-08-19T07:17:40.258Z,10.38
2022-08-19T07:20:10.642Z,9.65
2022-08-19T07:22:39.039Z,8.57
2022-08-19T07:25:09.267Z,12.77
2022-08-19T07:27:38.082Z,14.68
2022-08-19T07:30:12.344Z,13.20
2022-08-19T07:32:41.057Z,12.45
2022-08-19T07:35:10.291Z,14.02
2022-08-19T07:37:38.257Z,13.38
2022-08-19T07:40:08.145Z,12.00
2022-08-19T07:42:35.883Z,9.75
2022-08-19T07:45:03.724Z,11.15
2022-08-19T07:47:49.242Z,14.32
2022-08-19T07:50:20.930Z,12.50
2022-08-19T07:52:50.597Z,10.93
2022-08-19T07:55:41.740Z,9.07
2022-08-19T07:58:13.703Z,12.65
2022-08-19T08:00:42.698Z,12.93
2022-08-19T08:03:10.289Z,9.43
2022-08-19T08:05:56.170Z,11.52
2022-08-19T08:08:44.342Z,13.37
2022-08-19T08:11:19.952Z,12.48
2022-08-19T08:14:00.800Z,14.38
2022-08-19T08:16:34.962Z,11.35
2022-08-19T08:19:02.141Z,8.57
2022-08-19T08:21:29.377Z,10.57
2022-08-19T08:23:56.924Z,9.27
2022-08-19T08:26:26.037Z,9.82
2022-08-19T08:28:54.188Z,9.02
2022-08-19T08:31:21.650Z,9.13
2022-08-19T08:33:49.029Z,14.60
2022-08-19T08:36:17.161Z,16.55
2022-08-19T08:38:46.663Z,12.75
2022-08-19T08:41:34.629Z,11.50
2022-08-19T08:44:05.166Z,13.00
2022-08-19T08:46:44.601Z,14.27
2022-08-19T08:49:29.998Z,9.98
2022-08-19T08:52:32.121Z,11.13
2022-08-19T08:55:10.087Z,7.95
2022-08-19T08:58:04.247Z,11.80
2022-08-19T09:00:33.103Z,12.82
2022-08-19T09:03:04.510Z,10.35
2022-08-19T09:05:39.642Z,9.90
2022-08-19T09:08:37.850Z,8.13
2022-08-19T09:11:10.752Z,9.88
2022-08-19T09:16:28.636Z,12.77
2022-08-19T09:19:02.890Z,8.63
2022-08-19T09:21:30.459Z,8.52
2022-08-19T09:24:05.457Z,13.32
2022-08-19T09:26:47.679Z,7.85
2022-08-19T09:29:22.444Z,10.10
2022-08-19T09:31:50.952Z,8.55
2022-08-19T09:34:22.126Z,13.15
2022-08-19T09:36:56.152Z,8.13
2022-08-19T09:39:23.684Z,7.35
2022-08-19T09:41:51.412Z,8.35
2022-08-19T09:44:21.931Z,7.20
2022-08-19T09:46:49.341Z,7.47
2022-08-19T09:49:18.704Z,11.38
2022-08-19T09:51:51.295Z,8.93
2022-08-19T09:54:25.046Z,9.88
2022-08-19T09:56:54.430Z,10.60
2022-08-19T09:59:22.678Z,8.95
2022-08-19T10:01:49.801Z,8.85
2022-08-19T10:04:20.247Z,6.85
2022-08-19T10:06:53.812Z,10.85
2022-08-19T10:09:26.302Z,10.10
2022-08-19T10:12:04.499Z,11.73
2022-08-19T10:14:33.747Z,7.07
2022-08-19T10:17:04.594Z,7.30
2022-08-19T10:19:53.396Z,11.45
2022-08-19T10:22:23.904Z,7.95
2022-08-19T10:24:53.533Z,11.27
2022-08-19T10:27:20.783Z,12.80
2022-08-19T10:29:48.845Z,6.53
2022-08-19T10:32:16.174Z,15.77
2022-08-19T10:34:48.624Z,11.00
2022-08-19T10:37:23.716Z,10.40
2022-08-19T10:39:51.840Z,6.43
2022-08-19T10:42:20.123Z,7.35
2022-08-19T10:44:47.867Z,6.45
2022-08-19T10:47:24.613Z,8.57
2022-08-19T10:50:13.240Z,10.15
2022-08-19T10:52:49.088Z,5.45
2022-08-19T10:55:39.432Z,11.32
2022-08-19T10:58:16.409Z,8.82
2022-08-19T11:00:44.736Z,11.75
2022-08-19T11:03:12.726Z,9.13
2022-08-19T11:05:40.766Z,7.40
2022-08-19T11:08:18.115Z,6.80
2022-08-19T11:10:54.702Z,7.25
2022-08-19T11:13:24.169Z,9.25
2022-08-19T11:16:08.579Z,7.78
2022-08-19T11:18:41.307Z,11.50
2022-08-19T11:21:21.112Z,6.70
2022-08-19T11:23:50.210Z,5.85
2022-08-19T11:26:19.860Z,7.25
2022-08-19T11:28:47.493Z,12.60
2022-08-19T11:31:18.429Z,6.85
2022-08-19T11:33:47.978Z,9.60
2022-08-19T11:36:17.052Z,11.23
2022-08-19T11:38:45.645Z,10.05
2022-08-19T11:41:14.172Z,7.13
2022-08-19T11:43:41.332Z,6.20
2022-08-19T11:46:10.900Z,6.20
2022-08-19T11:48:38.928Z,6.30
2022-08-19T11:51:10.392Z,8.73
2022-08-19T11:53:38.736Z,6.88
2022-08-19T11:56:07.863Z,6.57
2022-08-19T11:58:35.575Z,7.07
2022-08-19T12:01:06.364Z,8.52
2022-08-19T12:03:35.025Z,4.90
2022-08-19T12:06:11.089Z,5.80
2022-08-19T12:08:39.234Z,5.18
2022-08-19T12:11:08.891Z,10.43
2022-08-19T12:13:37.725Z,7.13
2022-08-19T12:16:17.533Z,9.38
2022-08-19T12:18:47.283Z,6.60
2022-08-19T12:21:16.048Z,10.30
2022-08-19T12:23:43.814Z,8.07
2022-08-19T12:26:12.678Z,9.80
2022-08-19T12:28:40.248Z,8.68
2022-08-19T12:31:07.370Z,7.53
2022-08-19T12:33:35.169Z,7.32
2022-08-19T12:36:06.656Z,6.90
2022-08-19T12:38:35.636Z,9.40
2022-08-19T12:41:07.324Z,10.88
2022-08-19T12:43:42.821Z,8.57
2022-08-19T12:46:11.030Z,11.27
2022-08-19T12:48:42.640Z,6.22
2022-08-19T12:51:13.170Z,7.72
2022-08-19T12:53:41.376Z,7.38
2022-08-19T12:56:12.769Z,11.35
2022-08-19T12:58:40.343Z,11.05
2022-08-19T13:01:13.582Z,10.63
2022-08-19T13:03:40.962Z,6.50
2022-08-19T13:06:09.695Z,6.68
2022-08-19T13:08:37.529Z,10.85
2022-08-19T13:11:12.844Z,10.40
2022-08-19T13:13:42.191Z,9.02
2022-08-19T13:16:12.008Z,6.55
2022-08-19T13:18:40.801Z,11.73
2022-08-19T13:21:10.038Z,6.55
2022-08-19T13:23:37.492Z,8.43
2022-08-19T13:26:07.160Z,8.65
2022-08-19T13:28:54.362Z,7.00
2022-08-19T13:31:41.774Z,7.30
2022-08-19T13:34:09.325Z,7.72
2022-08-19T13:36:37.826Z,8.13
2022-08-19T13:39:06.893Z,7.03
2022-08-19T13:41:34.866Z,8.77
2022-08-19T13:44:02.884Z,5.85
2022-08-19T13:46:31.557Z,6.70
2022-08-19T13:48:58.910Z,8.13
2022-08-19T13:51:26.064Z,11.10
2022-08-19T13:53:53.825Z,6.97
2022-08-19T13:56:25.879Z,5.18
2022-08-19T13:58:54.494Z,7.28
2022-08-19T14:01:24.477Z,5.80
2022-08-19T14:03:52.448Z,7.68
2022-08-19T14:06:20.064Z,7.00
2022-08-19T14:08:47.365Z,7.00
2022-08-19T14:11:15.054Z,8.43
2022-08-19T14:13:42.403Z,8.20
2022-08-19T14:16:11.051Z,13.05
2022-08-19T14:18:39.517Z,9.52
2022-08-19T14:21:07.670Z,9.23
2022-08-19T14:23:36.988Z,10.70
2022-08-19T14:26:16.705Z,10.93
2022-08-19T14:28:45.479Z,11.07
2022-08-19T14:31:17.672Z,6.97
2022-08-19T14:33:44.902Z,8.10
2022-08-19T14:36:12.189Z,14.75
2022-08-19T14:38:40.352Z,7.50
2022-08-19T14:41:17.755Z,7.47
2022-08-19T14:43:47.403Z,10.93
2022-08-19T14:46:17.100Z,8.02
2022-08-19T14:48:45.070Z,8.77
2022-08-19T14:51:12.502Z,7.90
2022-08-19T14:53:39.910Z,10.27
2022-08-19T14:56:12.996Z,11.00
2022-08-19T14:58:44.186Z,6.85
2022-08-19T15:01:12.606Z,5.22
2022-08-19T15:03:41.552Z,11.88
2022-08-19T15:06:09.585Z,9.63
2022-08-19T15:08:42.101Z,8.10
2022-08-19T15:11:11.714Z,6.68
2022-08-19T15:13:40.139Z,5.80
2022-08-19T15:16:07.869Z,7.15
2022-08-19T15:18:47.475Z,9.32
2022-08-19T15:21:26.625Z,7.55
2022-08-19T15:23:56.460Z,8.52
2022-08-19T15:26:23.644Z,11.25
2022-08-19T15:28:50.956Z,10.63
2022-08-19T15:31:25.344Z,12.90
2022-08-19T15:33:58.951Z,7.78
2022-08-19T15:36:27.585Z,8.93
2022-08-19T15:38:56.726Z,9.60
2022-08-19T15:41:30.493Z,6.85
2022-08-19T15:44:10.365Z,9.55
2022-08-19T15:46:40.185Z,12.30
2022-08-19T15:49:10.633Z,9.23
2022-08-19T15:51:39.509Z,12.20
2022-08-19T15:54:08.990Z,8.60
2022-08-19T15:57:08.642Z,6.40
2022-08-19T15:59:55.886Z,7.50
2022-08-19T16:02:47.100Z,13.63
2022-08-19T16:05:36.501Z,6.95
2022-08-19T16:08:03.881Z,8.77
2022-08-19T16:10:31.329Z,8.40
2022-08-19T16:12:59.128Z,5.50
2022-08-19T16:15:28.538Z,8.63
2022-08-19T16:17:57.671Z,6.07
2022-08-19T16:20:27.261Z,6.60
2022-08-19T16:22:58.627Z,6.38
2022-08-19T16:25:28.582Z,7.00
2022-08-19T16:28:06.537Z,7.15
2022-08-19T16:30:40.267Z,10.35
2022-08-19T16:33:10.433Z,9.07
2022-08-19T16:35:37.866Z,8.00
2022-08-19T16:38:06.910Z,8.27
2022-08-19T16:40:35.607Z,9.48
2022-08-19T16:43:03.327Z,11.80
2022-08-19T16:45:30.630Z,12.70
2022-08-19T16:47:58.428Z,14.07
2022-08-19T16:50:46.110Z,9.88
2022-08-19T16:53:14.185Z,9.85
2022-08-19T16:55:41.417Z,8.07
2022-08-19T16:58:08.641Z,8.13
2022-08-19T17:00:35.976Z,10.95
2022-08-19T17:03:10.003Z,7.32
2022-08-19T17:05:47.798Z,6.35
2022-08-19T17:08:19.187Z,11.45
2022-08-19T17:11:07.875Z,10.05
2022-08-19T17:13:35.645Z,6.50
2022-08-19T17:16:03.256Z,9.60
2022-08-19T17:18:32.778Z,7.90
2022-08-19T17:21:01.235Z,13.23
2022-08-19T17:23:43.222Z,12.23
2022-08-19T17:26:18.306Z,12.55
2022-08-19T17:28:51.288Z,10.07
2022-08-19T17:31:21.176Z,11.52
2022-08-19T17:33:49.125Z,10.55
2022-08-19T17:36:17.950Z,15.43
2022-08-19T17:38:45.403Z,9.98
2022-08-19T17:41:12.677Z,14.13
2022-08-19T17:43:43.665Z,15.80
2022-08-19T17:46:18.105Z,7.50
2022-08-19T17:48:52.080Z,8.57
2022-08-19T17:51:35.940Z,7.43
2022-08-19T17:54:05.416Z,8.38
2022-08-19T17:56:32.757Z,9.68
2022-08-19T17:59:01.815Z,10.55
2022-08-19T18:01:52.107Z,9.60
2022-08-19T18:04:18.950Z,14.70
2022-08-19T18:06:52.708Z,12.77
2022-08-19T18:09:30.048Z,11.63
2022-08-19T18:12:12.791Z,10.35
2022-08-19T18:14:41.380Z,13.95
2022-08-19T18:17:12.469Z,11.50
2022-08-19T18:19:43.522Z,11.90
2022-08-19T18:22:36.480Z,12.48
2022-08-19T18:25:11.544Z,15.68
2022-08-19T18:27:39.177Z,9.45
2022-08-19T18:30:07.981Z,9.73
2022-08-19T18:32:38.487Z,10.15
2022-08-19T18:35:16.528Z,10.98
2022-08-19T18:37:45.380Z,10.35
2022-08-19T18:40:35.490Z,8.73
2022-08-19T18:43:22.337Z,8.05
2022-08-19T18:48:55.734Z,12.27
2022-08-19T18:51:27.792Z,12.18
2022-08-19T18:53:58.825Z,11.85
2022-08-19T18:56:35.189Z,15.20
2022-08-19T18:59:02.581Z,13.55
2022-08-19T19:01:36.792Z,15.35
2022-08-19T19:04:10.692Z,9.60
2022-08-19T19:06:41.037Z,12.85
2022-08-19T19:09:10.594Z,10.98
2022-08-19T19:11:46.316Z,11.95
2022-08-19T19:14:38.783Z,8.45
2022-08-19T19:17:08.180Z,6.10
2022-08-19T19:19:35.666Z,11.30
2022-08-19T19:22:04.551Z,10.13
2022-08-19T19:24:37.428Z,9.93
2022-08-19T19:27:08.352Z,8.70
2022-08-19T19:29:37.044Z,8.00
2022-08-19T19:32:07.230Z,13.68
2022-08-19T19:34:37.016Z,10.80
2022-08-19T19:37:04.441Z,11.93
2022-08-19T19:39:45.371Z,11.68
2022-08-19T19:42:20.108Z,7.32
2022-08-19T19:44:50.557Z,14.13
2022-08-19T19:47:19.546Z,8.68
2022-08-19T19:50:13.262Z,11.25
2022-08-19T19:52:41.036Z,14.60
2022-08-19T19:55:09.619Z,11.48
2022-08-19T19:57:39.714Z,12.27
2022-08-19T20:00:09.144Z,8.07
2022-08-19T20:02:36.228Z,12.13
2022-08-19T20:05:03.811Z,11.15
2022-08-19T20:07:50.112Z,7.20
2022-08-19T20:10:17.308Z,9.40
2022-08-19T20:12:44.679Z,13.50
2022-08-19T20:15:11.843Z,11.15
2022-08-19T20:17:42.617Z,12.20
2022-08-19T20:20:15.069Z,8.68
2022-08-19T20:22:43.470Z,11.45
2022-08-19T20:25:12.084Z,12.23
2022-08-19T20:27:39.829Z,11.27
2022-08-19T20:30:19.770Z,7.22
2022-08-19T20:32:48.999Z,11.80
2022-08-19T20:35:19.504Z,10.30
2022-08-19T20:37:47.253Z,8.80
2022-08-19T20:40:15.209Z,10.23
2022-08-19T20:42:43.817Z,13.45
2022-08-19T20:45:18.018Z,16.40
2022-08-19T20:48:02.704Z,7.97
2022-08-19T20:50:31.567Z,13.20
2022-08-19T20:52:58.782Z,11.10
2022-08-19T20:55:27.405Z,9.25
2022-08-19T20:57:55.152Z,13.10
2022-08-19T21:00:22.465Z,10.40
2022-08-19T21:02:50.109Z,9.98
2022-08-19T21:05:17.267Z,21.52
2022-08-19T21:07:44.420Z,10.15
2022-08-19T21:10:11.758Z,10.30
2022-08-19T21:12:39.597Z,10.23
2022-08-19T21:15:07.303Z,12.27
2022-08-19T21:17:34.686Z,10.85
2022-08-19T21:20:01.973Z,11.70
2022-08-19T21:22:29.164Z,14.18
2022-08-19T21:24:56.652Z,10.05
2022-08-19T21:27:23.886Z,14.80
2022-08-19T21:29:51.759Z,8.60
2022-08-19T21:32:20.594Z,9.38
2022-08-19T21:34:47.706Z,8.43
2022-08-19T21:37:25.237Z,20.13
2022-08-19T21:39:54.495Z,8.90
2022-08-19T21:42:23.189Z,9.32
2022-08-19T21:44:50.553Z,14.90
2022-08-19T21:47:18.265Z,10.25
2022-08-19T21:49:45.461Z,11.98
2022-08-19T21:52:13.398Z,9.60
2022-08-19T21:54:40.706Z,11.07
2022-08-19T21:57:10.888Z,9.52
2022-08-19T21:59:44.169Z,16.75
2022-08-19T22:02:20.416Z,11.43
2022-08-19T22:04:49.145Z,8.10
2022-08-19T22:07:16.930Z,10.43
2022-08-19T22:09:46.053Z,13.68
2022-08-19T22:12:26.624Z,8.80
2022-08-19T22:14:55.140Z,9.18
2022-08-19T22:17:22.993Z,12.43
2022-08-19T22:19:52.571Z,11.38
2022-08-19T22:22:24.939Z,9.75
2022-08-19T22:24:53.467Z,8.70
2022-08-19T22:27:22.204Z,9.00
2022-08-19T22:29:52.602Z,11.75
2022-08-19T22:32:27.947Z,12.15
2022-08-19T22:34:59.129Z,8.83
2022-08-19T22:37:28.865Z,7.85
2022-08-19T22:39:56.290Z,9.98
2022-08-19T22:42:24.769Z,10.52
2022-08-19T22:44:58.808Z,12.38
2022-08-19T22:47:27.152Z,16.15
2022-08-19T22:49:57.305Z,9.10
2022-08-19T22:52:24.411Z,13.02
2022-08-19T22:54:59.186Z,12.23
2022-08-19T22:57:27.567Z,9.43
2022-08-19T22:59:58.862Z,11.65
2022-08-19T23:02:34.508Z,11.60
2022-08-19T23:05:03.979Z,11.13
2022-08-19T23:07:31.525Z,8.15
2022-08-19T23:09:58.825Z,11.43
2022-08-19T23:12:35.139Z,12.48
2022-08-19T23:15:06.105Z,8.43
2022-08-19T23:17:33.693Z,11.10
2022-08-19T23:20:00.896Z,8.45
2022-08-19T23:22:30.418Z,9.18
2022-08-19T23:25:04.089Z,10.50
2022-08-19T23:27:50.072Z,10.23
2022-08-19T23:30:26.609Z,8.68
2022-08-19T23:35:41.749Z,8.15
2022-08-19T23:38:09.957Z,10.05
2022-08-19T23:40:39.255Z,13.30
2022-08-19T23:43:09.765Z,8.13
2022-08-19T23:45:40.495Z,9.18
2022-08-19T23:48:10.185Z,14.65
2022-08-19T23:50:40.266Z,9.73
2022-08-19T23:53:13.404Z,10.35
2022-08-19T23:55:43.999Z,12.35
2022-08-19T23:58:11.622Z,12.38
